createdAt,value
2023-03-29T00:01:06.380Z,9.07
2023-03-29T00:03:32.890Z,9.01
2023-03-29T00:05:59.453Z,8.83
2023-03-29T00:08:26.337Z,8.93
2023-03-29T00:10:52.840Z,8.79
2023-03-29T00:13:21.870Z,8.98
2023-03-29T00:15:48.261Z,9.01
2023-03-29T00:18:14.667Z,9.06
2023-03-29T00:20:41.363Z,9.18
2023-03-29T00:23:08.006Z,9.25
2023-03-29T00:25:34.462Z,9.33
2023-03-29T00:28:00.847Z,9.41
2023-03-29T00:30:27.241Z,9.41
2023-03-29T00:32:53.691Z,9.47
2023-03-29T00:35:20.173Z,9.47
2023-03-29T00:37:46.749Z,9.50
2023-03-29T00:40:13.129Z,9.52
2023-03-29T00:42:40.519Z,9.53
2023-03-29T00:45:06.874Z,9.45
2023-03-29T00:47:33.268Z,9.45
2023-03-29T00:49:59.621Z,9.38
2023-03-29T00:52:26.011Z,9.33
2023-03-29T00:54:52.519Z,9.27
2023-03-29T00:57:18.972Z,9.30
2023-03-29T00:59:45.376Z,9.25
2023-03-29T01:02:11.862Z,9.26
2023-03-29T01:04:38.292Z,9.24
2023-03-29T01:07:04.913Z,9.22
2023-03-29T01:09:33.664Z,9.23
2023-03-29T01:12:00.012Z,9.22
2023-03-29T01:14:26.518Z,9.11
2023-03-29T01:16:52.978Z,9.11
2023-03-29T01:19:19.368Z,9.16
2023-03-29T01:21:45.746Z,9.04
2023-03-29T01:24:12.132Z,8.99
2023-03-29T01:26:38.499Z,9.15
2023-03-29T01:29:04.844Z,9.05
2023-03-29T01:31:31.370Z,8.97
2023-03-29T01:33:57.991Z,8.94
2023-03-29T01:36:24.369Z,8.91
2023-03-29T01:38:50.773Z,8.86
2023-03-29T01:41:17.241Z,8.86
2023-03-29T01:43:43.738Z,8.89
2023-03-29T01:46:10.159Z,8.90
2023-03-29T01:48:36.563Z,8.97
2023-03-29T01:51:03.067Z,8.96
2023-03-29T01:53:30.010Z,9.08
2023-03-29T01:55:56.455Z,9.01
2023-03-29T01:58:22.971Z,9.01
2023-03-29T02:00:49.731Z,9.00
2023-03-29T02:03:16.230Z,8.99
2023-03-29T02:05:42.979Z,9.11
2023-03-29T02:08:09.590Z,9.10
2023-03-29T02:10:36.149Z,9.03
2023-03-29T02:13:02.807Z,8.95
2023-03-29T02:15:29.262Z,9.01
2023-03-29T02:17:56.504Z,8.89
2023-03-29T02:20:22.980Z,8.94
2023-03-29T02:22:49.465Z,8.96
2023-03-29T02:25:15.985Z,9.20
2023-03-29T02:27:42.331Z,9.33
2023-03-29T02:30:08.785Z,9.36
2023-03-29T02:32:35.736Z,9.28
2023-03-29T02:35:02.369Z,9.02
2023-03-29T02:37:30.062Z,9.16
2023-03-29T02:39:57.357Z,9.11
2023-03-29T02:42:23.726Z,9.26
2023-03-29T02:44:50.349Z,9.28
2023-03-29T02:47:16.755Z,9.27
2023-03-29T02:49:43.118Z,9.36
2023-03-29T02:52:09.495Z,9.46
2023-03-29T02:54:38.350Z,9.70
2023-03-29T02:57:04.909Z,9.77
2023-03-29T02:59:31.675Z,9.79
2023-03-29T03:01:58.185Z,9.61
2023-03-29T03:04:24.959Z,9.73
2023-03-29T03:06:51.359Z,9.76
2023-03-29T03:09:17.923Z,9.88
2023-03-29T03:11:44.409Z,10.04
2023-03-29T03:14:12.275Z,10.15
2023-03-29T03:16:38.797Z,10.10
2023-03-29T03:19:05.296Z,10.20
2023-03-29T03:21:31.727Z,10.27
2023-03-29T03:23:58.134Z,10.56
2023-03-29T03:26:24.517Z,10.57
2023-03-29T03:28:51.170Z,10.62
2023-03-29T03:31:17.615Z,10.65
2023-03-29T03:33:44.069Z,10.80
2023-03-29T03:36:10.766Z,10.79
2023-03-29T03:38:37.167Z,10.87
2023-03-29T03:41:03.689Z,10.88
2023-03-29T03:43:30.203Z,10.89
2023-03-29T03:45:56.655Z,10.88
2023-03-29T03:48:23.472Z,11.03
2023-03-29T03:50:49.933Z,11.16
2023-03-29T03:53:16.383Z,11.13
2023-03-29T03:55:43.206Z,11.10
2023-03-29T03:58:09.577Z,11.18
2023-03-29T04:00:35.968Z,11.19
2023-03-29T04:03:02.515Z,10.93
2023-03-29T04:05:28.960Z,10.85
2023-03-29T04:07:55.845Z,10.89
2023-03-29T04:10:22.402Z,10.96
2023-03-29T04:12:49.781Z,10.98
2023-03-29T04:15:18.576Z,10.98
2023-03-29T04:17:45.404Z,10.82
2023-03-29T04:20:12.198Z,10.79
2023-03-29T04:22:38.752Z,10.89
2023-03-29T04:25:05.282Z,10.95
2023-03-29T04:27:33.114Z,10.91
2023-03-29T04:29:59.636Z,10.96
2023-03-29T04:32:26.295Z,11.01
2023-03-29T04:34:55.184Z,11.06
2023-03-29T04:37:24.198Z,10.92
2023-03-29T04:39:51.567Z,11.03
2023-03-29T04:42:17.987Z,11.06
2023-03-29T04:44:44.688Z,11.03
2023-03-29T04:47:11.278Z,10.74
2023-03-29T04:49:37.908Z,10.83
2023-03-29T04:52:04.514Z,10.93
2023-03-29T04:54:30.965Z,11.11
2023-03-29T04:56:57.979Z,11.28
2023-03-29T04:59:24.575Z,11.31
2023-03-29T05:01:51.418Z,11.12
2023-03-29T05:04:17.838Z,11.11
2023-03-29T05:06:44.294Z,11.14
2023-03-29T05:09:11.048Z,11.14
2023-03-29T05:11:38.639Z,11.18
2023-03-29T05:14:09.590Z,11.18
2023-03-29T05:16:36.838Z,11.22
2023-03-29T05:19:03.357Z,11.02
2023-03-29T05:21:29.917Z,10.96
2023-03-29T05:23:56.525Z,10.98
2023-03-29T05:26:22.988Z,11.10
2023-03-29T05:28:49.449Z,11.14
2023-03-29T05:31:16.923Z,11.22
2023-03-29T05:33:47.753Z,11.30
2023-03-29T05:36:14.229Z,11.41
2023-03-29T05:38:40.605Z,11.48
2023-03-29T05:41:07.393Z,11.45
2023-03-29T05:43:34.802Z,11.40
2023-03-29T05:46:01.792Z,11.34
2023-03-29T05:48:29.050Z,11.32
2023-03-29T05:50:57.766Z,11.29
2023-03-29T05:53:25.278Z,11.24
2023-03-29T05:55:51.732Z,11.22
2023-03-29T05:58:18.348Z,11.19
2023-03-29T06:00:44.854Z,11.25
2023-03-29T06:03:20.820Z,10.98
2023-03-29T06:05:49.645Z,10.84
2023-03-29T06:08:16.499Z,10.89
2023-03-29T06:10:43.973Z,10.95
2023-03-29T06:13:10.317Z,11.00
2023-03-29T06:15:36.661Z,11.03
2023-03-29T06:18:03.311Z,11.10
2023-03-29T06:20:32.964Z,11.05
2023-03-29T06:22:59.324Z,11.10
2023-03-29T06:25:25.675Z,11.13
2023-03-29T06:27:52.095Z,11.08
2023-03-29T06:30:18.494Z,10.99
2023-03-29T06:32:45.145Z,11.03
2023-03-29T06:35:12.208Z,11.06
2023-03-29T06:37:38.608Z,11.09
2023-03-29T06:40:06.057Z,11.24
2023-03-29T06:42:32.698Z,11.30
2023-03-29T06:44:59.164Z,11.38
2023-03-29T06:47:25.803Z,11.45
2023-03-29T06:49:53.270Z,11.50
2023-03-29T06:52:22.222Z,11.53
2023-03-29T06:54:49.789Z,11.37
2023-03-29T06:57:16.822Z,11.54
2023-03-29T06:59:43.253Z,11.33
2023-03-29T07:02:11.804Z,11.36
2023-03-29T07:04:38.424Z,11.48
2023-03-29T07:07:04.841Z,11.44
2023-03-29T07:09:32.336Z,11.54
2023-03-29T07:11:58.724Z,11.68
2023-03-29T07:14:25.397Z,11.83
2023-03-29T07:16:55.463Z,12.01
2023-03-29T07:19:21.928Z,12.15
2023-03-29T07:21:48.324Z,12.29
2023-03-29T07:24:15.701Z,12.40
2023-03-29T07:26:52.277Z,12.35
2023-03-29T07:29:22.980Z,12.53
2023-03-29T07:31:49.451Z,12.49
2023-03-29T07:34:15.794Z,12.16
2023-03-29T07:36:42.198Z,12.26
2023-03-29T07:39:11.174Z,12.11
2023-03-29T07:41:39.961Z,12.16
2023-03-29T07:44:06.658Z,12.22
2023-03-29T07:46:33.222Z,12.17
2023-03-29T07:49:00.115Z,12.29
2023-03-29T07:51:28.281Z,12.38
2023-03-29T07:53:55.206Z,12.40
2023-03-29T07:56:21.646Z,12.33
2023-03-29T07:58:49.057Z,12.46
2023-03-29T08:01:17.958Z,12.79
2023-03-29T08:03:53.324Z,13.15
2023-03-29T08:06:19.776Z,13.32
2023-03-29T08:08:46.178Z,13.39
2023-03-29T08:11:15.061Z,13.40
2023-03-29T08:13:41.514Z,13.43
2023-03-29T08:16:07.961Z,13.52
2023-03-29T08:18:35.008Z,13.58
2023-03-29T08:21:01.887Z,13.78
2023-03-29T08:23:31.369Z,13.56
2023-03-29T08:25:57.736Z,13.72
2023-03-29T08:28:24.189Z,13.82
2023-03-29T08:30:50.706Z,14.00
2023-03-29T08:33:17.199Z,14.00
2023-03-29T08:35:43.765Z,14.17
2023-03-29T08:38:10.385Z,14.27
2023-03-29T08:40:36.830Z,14.43
2023-03-29T08:43:03.296Z,14.43
2023-03-29T08:45:29.787Z,14.34
2023-03-29T08:47:56.291Z,14.40
2023-03-29T08:50:22.669Z,14.36
2023-03-29T08:52:49.055Z,14.44
2023-03-29T08:55:15.539Z,14.66
2023-03-29T08:57:42.959Z,14.78
2023-03-29T09:00:09.396Z,15.02
2023-03-29T09:02:35.817Z,15.21
2023-03-29T09:05:02.281Z,15.14
2023-03-29T09:07:28.916Z,15.25
2023-03-29T09:09:55.373Z,15.43
2023-03-29T09:12:29.252Z,15.50
2023-03-29T09:14:55.656Z,15.60
2023-03-29T09:17:22.057Z,15.58
2023-03-29T09:19:48.446Z,15.61
2023-03-29T09:22:14.860Z,15.56
2023-03-29T09:24:41.228Z,15.60
2023-03-29T09:27:07.594Z,15.81
2023-03-29T09:29:34.197Z,15.88
2023-03-29T09:32:01.550Z,15.93
2023-03-29T09:34:28.061Z,15.99
2023-03-29T09:36:55.288Z,15.74
2023-03-29T09:39:22.835Z,15.30
2023-03-29T09:41:49.223Z,15.43
2023-03-29T09:46:47.425Z,16.17
2023-03-29T09:49:16.072Z,16.44
2023-03-29T09:51:43.646Z,16.55
2023-03-29T09:54:10.153Z,16.31
2023-03-29T09:56:36.749Z,16.40
2023-03-29T09:59:04.136Z,16.17
2023-03-29T10:01:30.545Z,16.25
2023-03-29T10:03:56.930Z,15.97
2023-03-29T10:06:23.434Z,15.77
2023-03-29T10:08:50.113Z,15.79
2023-03-29T10:11:26.239Z,16.09
2023-03-29T10:13:52.810Z,16.37
2023-03-29T10:16:19.479Z,16.58
2023-03-29T10:18:46.360Z,16.89
2023-03-29T10:21:12.760Z,17.02
2023-03-29T10:23:41.235Z,17.08
2023-03-29T10:26:07.874Z,17.27
2023-03-29T10:28:34.273Z,17.18
2023-03-29T10:31:02.007Z,17.51
2023-03-29T10:33:28.507Z,17.68
2023-03-29T10:35:54.940Z,17.93
2023-03-29T10:38:21.351Z,18.20
2023-03-29T10:40:47.844Z,18.27
2023-03-29T10:43:15.249Z,18.42
2023-03-29T10:45:41.730Z,18.34
2023-03-29T10:48:08.201Z,18.06
2023-03-29T10:50:34.579Z,18.09
2023-03-29T10:53:01.109Z,18.16
2023-03-29T10:55:27.531Z,18.40
2023-03-29T10:57:53.900Z,18.24
2023-03-29T11:00:20.296Z,18.40
2023-03-29T11:02:46.987Z,17.82
2023-03-29T11:05:13.748Z,17.85
2023-03-29T11:07:40.259Z,17.75
2023-03-29T11:10:06.661Z,17.80
2023-03-29T11:12:33.065Z,17.89
2023-03-29T11:14:59.743Z,18.01
2023-03-29T11:17:26.380Z,18.04
2023-03-29T11:19:52.944Z,17.97
2023-03-29T11:22:19.422Z,17.99
2023-03-29T11:24:46.048Z,18.05
2023-03-29T11:27:12.642Z,17.87
2023-03-29T11:29:41.083Z,17.84
2023-03-29T11:32:07.508Z,17.68
2023-03-29T11:34:34.136Z,17.51
2023-03-29T11:37:05.956Z,17.50
2023-03-29T11:39:32.774Z,17.37
2023-03-29T11:41:59.219Z,17.40
2023-03-29T11:44:25.971Z,17.55
2023-03-29T11:46:53.430Z,17.41
2023-03-29T11:49:22.219Z,17.58
2023-03-29T11:51:51.217Z,17.61
2023-03-29T11:54:20.041Z,17.46
2023-03-29T11:56:46.794Z,17.43
2023-03-29T11:59:13.539Z,17.56
2023-03-29T12:01:40.019Z,17.60
2023-03-29T12:04:06.675Z,17.66
2023-03-29T12:06:33.492Z,17.76
2023-03-29T12:08:59.998Z,17.70
2023-03-29T12:11:26.466Z,17.79
2023-03-29T12:13:52.852Z,17.95
2023-03-29T12:16:19.475Z,18.12
2023-03-29T12:18:46.097Z,18.02
2023-03-29T12:21:12.448Z,17.76
2023-03-29T12:23:38.847Z,17.84
2023-03-29T12:26:05.449Z,17.83
2023-03-29T12:28:31.841Z,17.76
2023-03-29T12:30:58.396Z,17.92
2023-03-29T12:33:25.006Z,17.97
2023-03-29T12:35:51.378Z,17.95
2023-03-29T12:38:17.909Z,18.11
2023-03-29T12:40:44.585Z,18.10
2023-03-29T12:43:13.212Z,18.25
2023-03-29T12:45:39.821Z,18.21
2023-03-29T12:48:06.510Z,18.12
2023-03-29T12:50:32.936Z,18.15
2023-03-29T12:52:59.402Z,18.23
2023-03-29T12:55:26.169Z,18.37
2023-03-29T12:57:52.557Z,18.52
2023-03-29T13:00:18.980Z,18.55
2023-03-29T13:02:45.775Z,18.60
2023-03-29T13:05:12.257Z,18.75
2023-03-29T13:07:39.966Z,18.89
2023-03-29T13:10:06.324Z,18.95
2023-03-29T13:12:33.645Z,18.78
2023-03-29T13:15:00.123Z,18.65
2023-03-29T13:17:26.532Z,18.58
2023-03-29T13:19:53.134Z,18.60
2023-03-29T13:22:19.847Z,18.59
2023-03-29T13:24:46.256Z,18.97
2023-03-29T13:27:12.724Z,19.20
2023-03-29T13:29:40.150Z,19.54
2023-03-29T13:32:06.515Z,19.76
2023-03-29T13:34:32.894Z,20.10
2023-03-29T13:36:59.324Z,20.37
2023-03-29T13:39:25.774Z,20.50
2023-03-29T13:41:52.130Z,20.67
2023-03-29T13:44:18.552Z,20.85
2023-03-29T13:46:45.015Z,20.88
2023-03-29T13:49:11.532Z,20.98
2023-03-29T13:51:38.910Z,20.92
2023-03-29T13:54:06.812Z,21.02
2023-03-29T13:56:33.190Z,20.97
2023-03-29T13:58:59.542Z,21.06
2023-03-29T14:01:26.036Z,21.03
2023-03-29T14:03:52.601Z,20.78
2023-03-29T14:06:18.997Z,20.97
2023-03-29T14:08:45.372Z,20.86
2023-03-29T14:11:11.772Z,20.80
2023-03-29T14:13:38.378Z,20.87
2023-03-29T14:16:05.166Z,20.63
2023-03-29T14:18:32.723Z,20.58
2023-03-29T14:20:59.149Z,20.47
2023-03-29T14:23:25.541Z,20.45
2023-03-29T14:25:52.390Z,20.24
2023-03-29T14:28:18.742Z,20.31
2023-03-29T14:30:45.539Z,20.20
2023-03-29T14:33:12.174Z,20.09
2023-03-29T14:35:38.612Z,19.97
2023-03-29T14:38:05.164Z,19.98
2023-03-29T14:40:31.785Z,20.14
2023-03-29T14:42:58.171Z,20.18
2023-03-29T14:45:24.577Z,20.31
2023-03-29T14:47:51.047Z,20.57
2023-03-29T14:50:17.769Z,20.66
2023-03-29T14:52:46.511Z,20.60
2023-03-29T14:55:13.750Z,20.41
2023-03-29T14:57:40.199Z,20.38
2023-03-29T15:00:07.602Z,20.21
2023-03-29T15:02:34.242Z,20.16
2023-03-29T15:05:01.460Z,20.14
2023-03-29T15:07:28.362Z,20.17
2023-03-29T15:09:54.883Z,20.04
2023-03-29T15:12:21.248Z,19.62
2023-03-29T15:14:47.811Z,19.60
2023-03-29T15:17:14.172Z,19.39
2023-03-29T15:19:40.574Z,19.39
2023-03-29T15:22:07.030Z,19.40
2023-03-29T15:24:33.663Z,19.43
2023-03-29T15:27:00.198Z,19.22
2023-03-29T15:29:26.614Z,19.34
2023-03-29T15:31:53.247Z,19.40
2023-03-29T15:34:19.648Z,19.36
2023-03-29T15:36:48.911Z,19.13
2023-03-29T15:39:15.863Z,19.10
2023-03-29T15:41:42.284Z,18.99
2023-03-29T15:44:10.750Z,18.89
2023-03-29T15:46:37.149Z,18.90
2023-03-29T15:49:03.556Z,18.77
2023-03-29T15:51:29.905Z,18.84
2023-03-29T15:53:57.276Z,18.95
2023-03-29T15:56:23.765Z,19.07
2023-03-29T15:58:50.145Z,19.10
2023-03-29T16:01:16.551Z,19.13
2023-03-29T16:03:43.875Z,19.12
2023-03-29T16:06:11.214Z,19.12
2023-03-29T16:08:37.589Z,19.01
2023-03-29T16:11:03.933Z,19.02
2023-03-29T16:13:30.343Z,19.00
2023-03-29T16:15:57.846Z,19.02
2023-03-29T16:18:26.777Z,19.01
2023-03-29T16:20:53.225Z,19.04
2023-03-29T16:23:19.756Z,19.00
2023-03-29T16:25:46.108Z,19.00
2023-03-29T16:28:12.565Z,18.93
2023-03-29T16:30:39.053Z,18.87
2023-03-29T16:33:05.553Z,18.70
2023-03-29T16:35:32.128Z,18.65
2023-03-29T16:37:58.656Z,18.70
2023-03-29T16:40:25.229Z,18.66
2023-03-29T16:42:52.296Z,18.60
2023-03-29T16:45:18.675Z,18.55
2023-03-29T16:47:45.091Z,18.51
2023-03-29T16:50:14.088Z,18.42
2023-03-29T16:52:40.694Z,18.29
2023-03-29T16:55:08.222Z,18.21
2023-03-29T16:57:34.579Z,18.12
2023-03-29T17:00:00.989Z,18.02
2023-03-29T17:02:27.549Z,18.09
2023-03-29T17:04:54.244Z,18.10
2023-03-29T17:07:20.857Z,17.97
2023-03-29T17:09:48.809Z,17.87
2023-03-29T17:12:35.449Z,17.85
2023-03-29T17:15:04.708Z,17.64
2023-03-29T17:17:32.255Z,17.54
2023-03-29T17:19:58.896Z,17.41
2023-03-29T17:22:26.233Z,17.40
2023-03-29T17:24:52.572Z,17.36
2023-03-29T17:27:21.238Z,17.35
2023-03-29T17:29:48.249Z,17.32
2023-03-29T17:34:58.019Z,17.25
2023-03-29T17:37:24.420Z,17.22
2023-03-29T17:39:50.799Z,17.18
2023-03-29T17:42:17.514Z,17.15
2023-03-29T17:44:44.254Z,17.08
2023-03-29T17:47:10.638Z,16.96
2023-03-29T17:49:36.984Z,16.90
2023-03-29T17:52:03.330Z,16.85
2023-03-29T17:54:30.194Z,16.77
2023-03-29T17:56:56.599Z,16.67
2023-03-29T17:59:23.010Z,16.61
2023-03-29T18:01:49.543Z,16.55
2023-03-29T18:04:15.983Z,16.52
2023-03-29T18:06:43.213Z,16.50
2023-03-29T18:09:09.815Z,16.50
2023-03-29T18:11:36.552Z,16.42
2023-03-29T18:14:02.941Z,16.37
2023-03-29T18:16:29.550Z,16.28
2023-03-29T18:18:56.175Z,16.21
2023-03-29T18:21:22.690Z,16.12
2023-03-29T18:23:49.205Z,16.09
2023-03-29T18:26:16.309Z,16.07
2023-03-29T18:28:42.909Z,15.91
2023-03-29T18:31:09.374Z,15.76
2023-03-29T18:33:35.930Z,15.55
2023-03-29T18:36:02.875Z,15.45
2023-03-29T18:38:31.318Z,15.44
2023-03-29T18:40:57.804Z,15.52
2023-03-29T18:43:24.354Z,15.58
2023-03-29T18:45:51.968Z,15.62
2023-03-29T18:48:18.585Z,15.68
2023-03-29T18:50:45.133Z,15.68
2023-03-29T18:53:11.545Z,15.47
2023-03-29T18:55:38.067Z,15.60
2023-03-29T18:58:04.474Z,15.64
2023-03-29T19:00:33.879Z,15.64
2023-03-29T19:03:02.777Z,15.62
2023-03-29T19:05:30.458Z,15.59
2023-03-29T19:07:59.155Z,15.57
2023-03-29T19:10:25.605Z,15.59
2023-03-29T19:12:55.015Z,15.56
2023-03-29T19:15:23.793Z,15.55
2023-03-29T19:17:50.752Z,15.60
2023-03-29T19:20:17.417Z,15.54
2023-03-29T19:22:44.123Z,15.49
2023-03-29T19:25:10.709Z,15.39
2023-03-29T19:27:37.645Z,15.32
2023-03-29T19:30:06.631Z,15.23
2023-03-29T19:32:33.832Z,15.21
2023-03-29T19:35:00.487Z,15.21
2023-03-29T19:37:26.991Z,15.16
2023-03-29T19:39:55.758Z,15.07
2023-03-29T19:42:22.128Z,15.05
2023-03-29T19:44:49.156Z,15.04
2023-03-29T19:47:17.091Z,15.04
2023-03-29T19:49:43.532Z,15.03
2023-03-29T19:52:09.947Z,15.01
2023-03-29T19:54:36.400Z,15.00
2023-03-29T19:57:07.117Z,15.00
2023-03-29T19:59:33.717Z,14.97
2023-03-29T20:02:00.265Z,14.96
2023-03-29T20:04:26.642Z,14.97
2023-03-29T20:06:53.052Z,14.96
2023-03-29T20:09:19.617Z,14.96
2023-03-29T20:11:46.719Z,14.97
2023-03-29T20:14:13.170Z,14.94
2023-03-29T20:16:39.795Z,14.94
2023-03-29T20:19:06.177Z,14.93
2023-03-29T20:21:32.901Z,14.92
2023-03-29T20:23:59.371Z,14.91
2023-03-29T20:26:25.722Z,14.90
2023-03-29T20:28:52.078Z,14.89
2023-03-29T20:31:18.734Z,14.88
2023-03-29T20:33:45.132Z,14.88
2023-03-29T20:36:11.600Z,14.88
2023-03-29T20:38:38.080Z,14.86
2023-03-29T20:41:05.132Z,14.84
2023-03-29T20:43:32.303Z,14.83
2023-03-29T20:45:58.835Z,14.82
2023-03-29T20:48:25.253Z,14.81
2023-03-29T20:50:51.830Z,14.78
2023-03-29T20:53:18.627Z,14.75
2023-03-29T20:55:46.392Z,14.73
2023-03-29T20:58:12.764Z,14.60
2023-03-29T21:00:39.143Z,14.54
2023-03-29T21:03:05.744Z,14.46
2023-03-29T21:05:32.259Z,14.33
2023-03-29T21:07:58.694Z,14.28
2023-03-29T21:10:25.074Z,14.23
2023-03-29T21:12:53.869Z,14.18
2023-03-29T21:15:20.263Z,13.95
2023-03-29T21:17:46.704Z,13.97
2023-03-29T21:20:13.097Z,14.04
2023-03-29T21:22:39.629Z,14.03
2023-03-29T21:25:06.442Z,14.06
2023-03-29T21:27:32.826Z,14.07
2023-03-29T21:29:59.397Z,14.00
2023-03-29T21:32:25.863Z,14.03
2023-03-29T21:34:52.239Z,14.06
2023-03-29T21:37:18.581Z,14.06
2023-03-29T21:39:45.204Z,14.02
2023-03-29T21:42:11.531Z,14.22
2023-03-29T21:44:38.257Z,14.27
2023-03-29T21:47:04.838Z,14.37
2023-03-29T21:49:31.250Z,14.44
2023-03-29T21:51:57.645Z,14.55
2023-03-29T21:54:24.173Z,14.60
2023-03-29T21:56:50.566Z,14.62
2023-03-29T21:59:16.970Z,14.58
2023-03-29T22:01:43.394Z,14.63
2023-03-29T22:04:09.990Z,14.69
2023-03-29T22:06:36.690Z,14.72
2023-03-29T22:09:03.083Z,14.73
2023-03-29T22:11:29.427Z,14.72
2023-03-29T22:13:56.126Z,14.77
2023-03-29T22:16:22.899Z,14.95
2023-03-29T22:18:49.723Z,14.91
2023-03-29T22:21:16.329Z,14.72
2023-03-29T22:23:42.742Z,14.67
2023-03-29T22:26:09.279Z,14.73
2023-03-29T22:28:35.624Z,14.69
2023-03-29T22:31:02.264Z,14.64
2023-03-29T22:33:28.755Z,14.63
2023-03-29T22:35:55.523Z,14.78
2023-03-29T22:38:21.910Z,14.76
2023-03-29T22:40:50.653Z,14.77
2023-03-29T22:43:19.432Z,14.83
2023-03-29T22:45:46.167Z,14.88
2023-03-29T22:48:12.539Z,14.89
2023-03-29T22:50:39.152Z,14.79
2023-03-29T22:53:05.535Z,14.83
2023-03-29T22:55:31.915Z,14.93
2023-03-29T22:57:58.412Z,14.89
2023-03-29T23:00:24.812Z,14.77
2023-03-29T23:02:51.350Z,14.79
2023-03-29T23:05:17.820Z,14.87
2023-03-29T23:07:44.392Z,14.90
2023-03-29T23:10:10.767Z,14.58
2023-03-29T23:12:37.236Z,14.20
2023-03-29T23:15:03.588Z,13.88
2023-03-29T23:17:30.082Z,13.93
2023-03-29T23:19:56.518Z,14.00
2023-03-29T23:22:22.872Z,14.03
2023-03-29T23:24:49.430Z,14.04
2023-03-29T23:27:15.850Z,14.09
2023-03-29T23:29:42.242Z,14.15
2023-03-29T23:32:08.957Z,14.15
2023-03-29T23:34:36.354Z,14.15
2023-03-29T23:37:02.861Z,14.09
2023-03-29T23:39:29.469Z,14.08
2023-03-29T23:41:56.186Z,14.07
2023-03-29T23:44:22.579Z,14.03
2023-03-29T23:46:49.454Z,13.97
2023-03-29T23:49:15.877Z,13.95
2023-03-29T23:51:42.295Z,13.76
2023-03-29T23:54:08.912Z,13.79
2023-03-29T23:56:35.529Z,13.71
2023-03-29T23:59:02.033Z,13.67
